Wilson Dublin — V2FV4 — position and weather

sailwx.info

Track history (hours):
 
Tides and Currents Weather Stations Pressure Air Temp Water Temp Dewpoint Dewpoint Depression Visibility Wind Speed Wind Dir Waves Ship Positions

Wilson Dublin

Last reported at 2018-Jun-16 03:56 UTC. Time now 2018-Jun-18 23:17 UTC.
Position N 40°54' W 009°49'.

Length 88 m; draft 5.6 m.

Type: Cargo ship. MMSI: 305812000.

Date/timePositionNaut miles runAvg speedWind from/ knotsBaromVisibWave heightAir tempDewpointWater temp
2018-Jun-16 03:56N 40°54' W 009°49'5 5.8
2018-Jun-16 03:04N 40°49' W 009°49'0 6.0
2018-Jun-16 03:00N 40°48' W 009°49'3 5.6
2018-Jun-16 02:26N 40°45' W 009°49'2 5.6
2018-Jun-16 01:59N 40°43' W 009°49'3 5.3
2018-Jun-16 01:26N 40°40' W 009°49'2 5.2
2018-Jun-16 00:58N 40°37' W 009°49'2 5.0
2018-Jun-16 00:28N 40°35' W 009°49'4 5.5
2018-Jun-15 23:43N 40°31' W 009°49'1 5.6
2018-Jun-15 23:30N 40°30' W 009°50'4 5.5
2018-Jun-15 22:50N 40°26' W 009°50'2 5.3
2018-Jun-15 22:30N 40°24' W 009°50'3 5.6
2018-Jun-15 22:00N 40°21' W 009°50'3 5.4
2018-Jun-15 21:30N 40°19' W 009°50'18 5.5
2018-Jun-15 18:12N 40°00' W 009°50'3 6.3
2018-Jun-15 17:39N 39°57' W 009°50'6 6.5
2018-Jun-15 16:41N 39°51' W 009°50'1 6.6
2018-Jun-15 16:30N 39°50' W 009°50'3 6.8
2018-Jun-15 16:00N 39°46' W 009°50'4 6.9
2018-Jun-15 15:30N 39°43' W 009°50'3 7.0
2018-Jun-15 15:00N 39°39' W 009°50'3 7.0
2018-Jun-15 14:30N 39°36' W 009°50'3 6.8
2018-Jun-15 14:01N 39°32' W 009°50'4 7.1
2018-Jun-15 13:30N 39°29' W 009°50'4 7.2
2018-Jun-15 13:01N 39°25' W 009°50'4 7.6
2018-Jun-15 12:29N 39°21' W 009°51'6 7.6
2018-Jun-15 11:38N 39°15' W 009°51'1 7.4
2018-Jun-15 11:30N 39°14' W 009°51'4 7.7
2018-Jun-15 10:58N 39°10' W 009°51'3 7.6
2018-Jun-15 10:31N 39°06' W 009°51'4 7.9
2018-Jun-15 10:01N 39°02' W 009°51'4 8.2
2018-Jun-15 09:30N 38°58' W 009°51'4 8.0
2018-Jun-15 09:01N 38°54' W 009°51'4 8.1
2018-Jun-15 08:31N 38°50' W 009°51'4 8.0
2018-Jun-15 08:00N 38°46' W 009°51'4 8.0
2018-Jun-15 07:31N 38°42' W 009°50'4 8.1
2018-Jun-15 07:00N 38°38' W 009°49'4 8.4
2018-Jun-15 06:31N 38°34' W 009°48'4 8.4
2018-Jun-15 06:00N 38°30' W 009°47'4 8.2
2018-Jun-15 05:30N 38°26' W 009°46'22 8.1
2018-Jun-15 02:50N 38°05' W 009°39'2 7.5
2018-Jun-15 02:31N 38°02' W 009°39'4 7.4
2018-Jun-15 01:58N 37°58' W 009°38'3 7.1
2018-Jun-15 01:30N 37°55' W 009°37'4 7.0
2018-Jun-15 00:59N 37°52' W 009°36'3 6.9
2018-Jun-15 00:30N 37°48' W 009°35'3 6.6
2018-Jun-15 00:00N 37°45' W 009°34'3 6.9
2018-Jun-14 23:31N 37°42' W 009°33'3 7.0
2018-Jun-14 23:00N 37°38' W 009°32'3 6.4
2018-Jun-14 22:30N 37°35' W 009°31'3 6.2
2018-Jun-14 22:00N 37°32' W 009°30'3 6.4
2018-Jun-14 21:30N 37°29' W 009°29'3 5.7
2018-Jun-14 21:00N 37°27' W 009°28'5 5.9
2018-Jun-14 20:14N 37°22' W 009°27'51 5.8
2018-Jun-14 11:29N 36°41' W 008°50'168 8.9
2018-Jun-13 16:36N 36°00' W 005°27'2 5.3
2018-Jun-13 16:14N 36°00' W 005°25'221 7.8
2018-Jun-12 11:53N 37°13' W 001°04'3 8.9
2018-Jun-12 11:31N 37°15' W 001°01'5 9.0
2018-Jun-12 10:56N 37°19' W 000°56'4 9.0
2018-Jun-12 10:30N 37°21' W 000°53'5 9.8
2018-Jun-12 10:00N 37°24' W 000°48'4 7.8
2018-Jun-12 09:30N 37°27' W 000°44'4 8.9
2018-Jun-12 09:00N 37°30' W 000°40'5 9.2
2018-Jun-12 08:30N 37°33' W 000°36'5 9.5
2018-Jun-12 08:01N 37°36' W 000°32'5 9.4
2018-Jun-12 07:31N 37°40' W 000°29'5 9.4
2018-Jun-12 07:01N 37°44' W 000°25'17 9.3
2018-Jun-12 05:11N 37°58' W 000°13'2 9.1
2018-Jun-12 04:58N 37°60' W 000°12'23 9.3
2018-Jun-12 02:27N 38°20' E 000°04'29 9.3
2018-Jun-11 23:21N 38°44' E 000°23'53 9.3
2018-Jun-11 17:41N 39°31' W 000°07'  
2018-Jun-07 18:56N 39°26' W 000°16'2 4.3
2018-Jun-07 18:24N 39°27' W 000°19'0 0.0
2018-Jun-07 18:00N 39°27' W 000°19'0 0.0
2018-Jun-07 17:30N 39°27' W 000°19'0 0.0
2018-Jun-07 17:00N 39°27' W 000°19'0 0.0
2018-Jun-07 16:27N 39°27' W 000°19'0 0.0
2018-Jun-07 16:00N 39°27' W 000°19'0 0.0
2018-Jun-07 15:30N 39°27' W 000°19'0 0.0
2018-Jun-07 14:57N 39°27' W 000°19'0 0.0
2018-Jun-07 14:30N 39°27' W 000°19'0 0.0
2018-Jun-07 13:36N 39°27' W 000°19'0 0.0
2018-Jun-07 09:12N 39°27' W 000°19'0 0.0
2018-Jun-07 08:15N 39°27' W 000°19'0 0.0
2018-Jun-07 08:00N 39°27' W 000°19'0 0.0
2018-Jun-07 07:27N 39°27' W 000°19'0 0.0
2018-Jun-07 06:51N 39°27' W 000°19'0 0.0
2018-Jun-07 06:21N 39°27' W 000°19'0 0.0
2018-Jun-07 06:00N 39°27' W 000°19'0 0.0
2018-Jun-07 05:27N 39°27' W 000°19'0 0.0
2018-Jun-07 05:00N 39°27' W 000°19'0 0.0
2018-Jun-07 04:30N 39°27' W 000°19'0 0.0
2018-Jun-07 04:00N 39°27' W 000°19'0 0.0
2018-Jun-07 03:30N 39°27' W 000°19'0 0.0
2018-Jun-07 03:00N 39°27' W 000°19'0 0.0
2018-Jun-07 02:30N 39°27' W 000°19'0 0.0
2018-Jun-07 02:00N 39°27' W 000°19'0 0.0
2018-Jun-07 01:30N 39°27' W 000°19'0 0.0
2018-Jun-07 01:00N 39°27' W 000°19'0 0.0
2018-Jun-07 00:30N 39°27' W 000°19'0 0.0
2018-Jun-06 23:57N 39°27' W 000°19'0 0.0
2018-Jun-06 23:30N 39°27' W 000°19'0 0.0
2018-Jun-06 23:00N 39°27' W 000°19'0 0.0
2018-Jun-06 22:24N 39°27' W 000°19'0 0.0
2018-Jun-06 22:00N 39°27' W 000°19'0 0.0
2018-Jun-06 21:30N 39°27' W 000°19'0 0.0
2018-Jun-06 20:45N 39°27' W 000°19'0 0.0
2018-Jun-06 20:30N 39°27' W 000°19'0 0.0
2018-Jun-06 20:00N 39°27' W 000°19'0 0.0
2018-Jun-06 19:27N 39°27' W 000°19'0 0.0
2018-Jun-06 19:00N 39°27' W 000°19'0 0.0
2018-Jun-06 18:30N 39°27' W 000°19'0 0.0
2018-Jun-06 18:00N 39°27' W 000°19'0 0.0
2018-Jun-06 17:31N 39°27' W 000°19'102 8.1
2018-Jun-06 05:01N 37°45' W 000°20'010.4
2018-Jun-06 05:00N 37°45' W 000°20'610.5
2018-Jun-06 04:28N 37°40' W 000°24'  
Track history (hours):
 
Tides and Currents Weather Stations Pressure Air Temp Water Temp Dewpoint Dewpoint Depression Visibility Wind Speed Wind Dir Waves Ship Positions

Wilson Dublin

Last reported at 2018-Jun-16 03:56 UTC. Time now 2018-Jun-18 23:17 UTC.
Position N 40°54' W 009°49'.

Length 88 m; draft 5.6 m.

Type: Cargo ship. MMSI: 305812000.

Date/timePositionNaut miles runAvg speedWind from/ knotsBaromVisibWave heightAir tempDewpointWater temp
2018-Jun-16 03:56N 40°54' W 009°49'5 5.8
2018-Jun-16 03:04N 40°49' W 009°49'0 6.0
2018-Jun-16 03:00N 40°48' W 009°49'3 5.6
2018-Jun-16 02:26N 40°45' W 009°49'2 5.6
2018-Jun-16 01:59N 40°43' W 009°49'3 5.3
2018-Jun-16 01:26N 40°40' W 009°49'2 5.2
2018-Jun-16 00:58N 40°37' W 009°49'2 5.0
2018-Jun-16 00:28N 40°35' W 009°49'4 5.5
2018-Jun-15 23:43N 40°31' W 009°49'1 5.6
2018-Jun-15 23:30N 40°30' W 009°50'4 5.5
2018-Jun-15 22:50N 40°26' W 009°50'2 5.3
2018-Jun-15 22:30N 40°24' W 009°50'3 5.6
2018-Jun-15 22:00N 40°21' W 009°50'3 5.4
2018-Jun-15 21:30N 40°19' W 009°50'18 5.5
2018-Jun-15 18:12N 40°00' W 009°50'3 6.3
2018-Jun-15 17:39N 39°57' W 009°50'6 6.5
2018-Jun-15 16:41N 39°51' W 009°50'1 6.6
2018-Jun-15 16:30N 39°50' W 009°50'3 6.8
2018-Jun-15 16:00N 39°46' W 009°50'4 6.9
2018-Jun-15 15:30N 39°43' W 009°50'3 7.0
2018-Jun-15 15:00N 39°39' W 009°50'3 7.0
2018-Jun-15 14:30N 39°36' W 009°50'3 6.8
2018-Jun-15 14:01N 39°32' W 009°50'4 7.1
2018-Jun-15 13:30N 39°29' W 009°50'4 7.2
2018-Jun-15 13:01N 39°25' W 009°50'4 7.6
2018-Jun-15 12:29N 39°21' W 009°51'6 7.6
2018-Jun-15 11:38N 39°15' W 009°51'1 7.4
2018-Jun-15 11:30N 39°14' W 009°51'4 7.7
2018-Jun-15 10:58N 39°10' W 009°51'3 7.6
2018-Jun-15 10:31N 39°06' W 009°51'4 7.9
2018-Jun-15 10:01N 39°02' W 009°51'4 8.2
2018-Jun-15 09:30N 38°58' W 009°51'4 8.0
2018-Jun-15 09:01N 38°54' W 009°51'4 8.1
2018-Jun-15 08:31N 38°50' W 009°51'4 8.0
2018-Jun-15 08:00N 38°46' W 009°51'4 8.0
2018-Jun-15 07:31N 38°42' W 009°50'4 8.1
2018-Jun-15 07:00N 38°38' W 009°49'4 8.4
2018-Jun-15 06:31N 38°34' W 009°48'4 8.4
2018-Jun-15 06:00N 38°30' W 009°47'4 8.2
2018-Jun-15 05:30N 38°26' W 009°46'22 8.1
2018-Jun-15 02:50N 38°05' W 009°39'2 7.5
2018-Jun-15 02:31N 38°02' W 009°39'4 7.4
2018-Jun-15 01:58N 37°58' W 009°38'3 7.1
2018-Jun-15 01:30N 37°55' W 009°37'4 7.0
2018-Jun-15 00:59N 37°52' W 009°36'3 6.9
2018-Jun-15 00:30N 37°48' W 009°35'3 6.6
2018-Jun-15 00:00N 37°45' W 009°34'3 6.9
2018-Jun-14 23:31N 37°42' W 009°33'3 7.0
2018-Jun-14 23:00N 37°38' W 009°32'3 6.4
2018-Jun-14 22:30N 37°35' W 009°31'3 6.2
2018-Jun-14 22:00N 37°32' W 009°30'3 6.4
2018-Jun-14 21:30N 37°29' W 009°29'3 5.7
2018-Jun-14 21:00N 37°27' W 009°28'5 5.9
2018-Jun-14 20:14N 37°22' W 009°27'51 5.8
2018-Jun-14 11:29N 36°41' W 008°50'168 8.9
2018-Jun-13 16:36N 36°00' W 005°27'2 5.3
2018-Jun-13 16:14N 36°00' W 005°25'221 7.8
2018-Jun-12 11:53N 37°13' W 001°04'3 8.9
2018-Jun-12 11:31N 37°15' W 001°01'5 9.0
2018-Jun-12 10:56N 37°19' W 000°56'4 9.0
2018-Jun-12 10:30N 37°21' W 000°53'5 9.8
2018-Jun-12 10:00N 37°24' W 000°48'4 7.8
2018-Jun-12 09:30N 37°27' W 000°44'4 8.9
2018-Jun-12 09:00N 37°30' W 000°40'5 9.2
2018-Jun-12 08:30N 37°33' W 000°36'5 9.5
2018-Jun-12 08:01N 37°36' W 000°32'5 9.4
2018-Jun-12 07:31N 37°40' W 000°29'5 9.4
2018-Jun-12 07:01N 37°44' W 000°25'17 9.3
2018-Jun-12 05:11N 37°58' W 000°13'2 9.1
2018-Jun-12 04:58N 37°60' W 000°12'23 9.3
2018-Jun-12 02:27N 38°20' E 000°04'29 9.3
2018-Jun-11 23:21N 38°44' E 000°23'53 9.3
2018-Jun-11 17:41N 39°31' W 000°07'  
2018-Jun-07 18:56N 39°26' W 000°16'2 4.3
2018-Jun-07 18:24N 39°27' W 000°19'0 0.0
2018-Jun-07 18:00N 39°27' W 000°19'0 0.0
2018-Jun-07 17:30N 39°27' W 000°19'0 0.0
2018-Jun-07 17:00N 39°27' W 000°19'0 0.0
2018-Jun-07 16:27N 39°27' W 000°19'0 0.0
2018-Jun-07 16:00N 39°27' W 000°19'0 0.0
2018-Jun-07 15:30N 39°27' W 000°19'0 0.0
2018-Jun-07 14:57N 39°27' W 000°19'0 0.0
2018-Jun-07 14:30N 39°27' W 000°19'0 0.0
2018-Jun-07 13:36N 39°27' W 000°19'0 0.0
2018-Jun-07 09:12N 39°27' W 000°19'0 0.0
2018-Jun-07 08:15N 39°27' W 000°19'0 0.0
2018-Jun-07 08:00N 39°27' W 000°19'0 0.0
2018-Jun-07 07:27N 39°27' W 000°19'0 0.0
2018-Jun-07 06:51N 39°27' W 000°19'0 0.0
2018-Jun-07 06:21N 39°27' W 000°19'0 0.0
2018-Jun-07 06:00N 39°27' W 000°19'0 0.0
2018-Jun-07 05:27N 39°27' W 000°19'0 0.0
2018-Jun-07 05:00N 39°27' W 000°19'0 0.0
2018-Jun-07 04:30N 39°27' W 000°19'0 0.0
2018-Jun-07 04:00N 39°27' W 000°19'0 0.0
2018-Jun-07 03:30N 39°27' W 000°19'0 0.0
2018-Jun-07 03:00N 39°27' W 000°19'0 0.0
2018-Jun-07 02:30N 39°27' W 000°19'0 0.0
2018-Jun-07 02:00N 39°27' W 000°19'0 0.0
2018-Jun-07 01:30N 39°27' W 000°19'0 0.0
2018-Jun-07 01:00N 39°27' W 000°19'0 0.0
2018-Jun-07 00:30N 39°27' W 000°19'0 0.0
2018-Jun-06 23:57N 39°27' W 000°19'0 0.0
2018-Jun-06 23:30N 39°27' W 000°19'0 0.0
2018-Jun-06 23:00N 39°27' W 000°19'0 0.0
2018-Jun-06 22:24N 39°27' W 000°19'0 0.0
2018-Jun-06 22:00N 39°27' W 000°19'0 0.0
2018-Jun-06 21:30N 39°27' W 000°19'0 0.0
2018-Jun-06 20:45N 39°27' W 000°19'0 0.0
2018-Jun-06 20:30N 39°27' W 000°19'0 0.0
2018-Jun-06 20:00N 39°27' W 000°19'0 0.0
2018-Jun-06 19:27N 39°27' W 000°19'0 0.0
2018-Jun-06 19:00N 39°27' W 000°19'0 0.0
2018-Jun-06 18:30N 39°27' W 000°19'0 0.0
2018-Jun-06 18:00N 39°27' W 000°19'0 0.0
2018-Jun-06 17:31N 39°27' W 000°19'102 8.1
2018-Jun-06 05:01N 37°45' W 000°20'010.4
2018-Jun-06 05:00N 37°45' W 000°20'610.5
2018-Jun-06 04:28N 37°40' W 000°24'  

Dump ship's entire track history